Main page
METAR-TAF:

METAR-TAF

Airports :

Islay Airport

Islay, Scotland

latitude: 55-40-55N, longitude: 006-15-24W, elevation: 16 m

Current weather observation

The report was made 25 minutes ago, at 15:20 UTC
Wind 20 kt from the West/Northwest
Temperature 11°C
Humidity 66%
Pressure 1028 hPa
Visibility 10 km or more
Broken clouds at a height of 3900 ft
Scattered clouds at a height of 4800 ft

METAR: EGPI 211520Z 29020KT 9999 BKN039 SCT048 11/05 Q1028

Time: 16:45 (15:45 UTC)

Forecast

The report was made 1 hour and 48 minutes ago, at 13:57 UTC
Forecast valid from 21 at 15 UTC to 21 at 18 UTC
Wind 17 kt from the West/Northwest
Visibility 10 km or more
Scattered clouds at a height of 3500 ft
Temporary
from 21 at 15 UTC to 21 at 18 UTC
Wind 20 kt from the Northwest with gusts up to 30 kt
Probability 30% :
Temporary
from 21 at 15 UTC to 21 at 18 UTC
Visibility: 7000 m
Broken clouds at a height of 1400 ft
rain showers

TAF: EGPI 211357Z 2115/2118 30017KT 9999 SCT035 TEMPO 2115/2118 31020G30KT PROB30 TEMPO 2115/2118 7000 SHRA BKN014

Weather observations and forecasts of more than 4000 airports (METAR and TAF reports).

The available stations are represented by yellow and red dots on the map.

Hover mouse over dot to see the name of the station.

Then click to see weather observations and forecasts.

To change the map : click on the green buttons with a black cross to zoom in, on the green button with a dash to zoom out, or on the green arrows for adjacent maps.


METAR-TAF: